Time;durP1;ratioP1;P1;durP2;ratioP2;P2;SDS_P1;SDS_P2;PMS_P1;PMS_P2;Temp;Humidity;BMP_temperature;BMP_pressure;BME280_temperature;BME280_humidity;BME280_pressure;Samples;Min_cycle;Max_cycle;Signal;HPM_P1;HPM_P2
2023/08/13 00:00:44;;;;;;;;;;;;;;;16.80;69.77;100231.84;5116645;27;2511;-79
2023/08/13 00:03:36;;;;;;;;;;;;;;;16.79;69.37;100241.06;5118942;27;2336;-77
2023/08/13 00:06:28;;;;;;;;;;;;;;;16.79;69.70;100230.19;5116442;28;2358;-76
2023/08/13 00:09:21;;;;;;;;;;;;;;;16.79;69.63;100238.34;5123198;27;2307;-77
2023/08/13 00:12:12;;;;;;;;;;;;;;;16.78;69.59;100237.53;5116965;27;2626;-78
2023/08/13 00:15:05;;;;;;;;;;;;;;;16.78;69.63;100228.56;5117194;27;2394;-76
2023/08/13 00:17:57;;;;;;;;;;;;;;;16.76;69.63;100228.81;5117435;27;2176;-78
2023/08/13 00:20:48;;;;;;;;;;;;;;;16.76;69.68;100220.66;5119495;27;2217;-78
2023/08/13 00:23:40;;;;;;;;;;;;;;;16.76;69.59;100208.97;5126920;27;2562;-77
2023/08/13 00:26:32;;;;;;;;;;;;;;;16.75;69.70;100213.56;5117753;27;2242;-78
2023/08/13 00:29:25;;;;;;;;;;;;;;;16.75;69.67;100213.56;5123128;27;2483;-78
2023/08/13 00:32:16;;;;;;;;;;;;;;;16.74;69.53;100211.13;5118252;27;2139;-77
2023/08/13 00:35:08;;;;;;;;;;;;;;;16.73;69.59;100204.84;5120608;27;2471;-77
2023/08/13 00:38:00;;;;;;;;;;;;;;;16.73;69.50;100212.22;5115451;27;2251;-78
2023/08/13 00:40:52;;;;;;;;;;;;;;;16.72;69.53;100211.41;5116809;27;2219;-78
2023/08/13 00:43:44;;;;;;;;;;;;;;;16.72;69.44;100213.31;5119894;27;2275;-76
2023/08/13 00:46:37;;;;;;;;;;;;;;;16.72;69.65;100207.88;5120862;27;2567;-77
2023/08/13 00:49:29;;;;;;;;;;;;;;;16.71;69.42;100215.22;5121183;27;2616;-79
2023/08/13 00:52:21;;;;;;;;;;;;;;;16.71;69.40;100212.50;5117135;27;2658;-77
2023/08/13 00:55:13;;;;;;;;;;;;;;;16.70;69.39;100210.84;5119837;27;2320;-77
2023/08/13 00:58:05;;;;;;;;;;;;;;;16.70;69.43;100201.88;5121636;27;2301;-78
2023/08/13 01:00:56;;;;;;;;;;;;;;;16.69;69.60;100203.78;5123243;27;2239;-78
2023/08/13 01:03:48;;;;;;;;;;;;;;;16.69;69.37;100202.97;5119755;27;2231;-77
2023/08/13 01:06:40;;;;;;;;;;;;;;;16.68;69.31;100202.16;5119522;27;2306;-77
2023/08/13 01:09:32;;;;;;;;;;;;;;;16.68;69.44;100204.88;5118509;27;2291;-78
2023/08/13 01:12:24;;;;;;;;;;;;;;;16.68;69.32;100196.72;5120213;27;2384;-77
2023/08/13 01:15:17;;;;;;;;;;;;;;;16.68;69.37;100198.63;5120974;27;2276;-76
2023/08/13 01:18:08;;;;;;;;;;;;;;;16.67;69.55;100200.50;5120222;27;2368;-78
2023/08/13 01:20:59;;;;;;;;;;;;;;;16.66;69.47;100193.44;5126291;27;2654;-78
2023/08/13 01:23:53;;;;;;;;;;;;;;;16.67;69.36;100194.25;5118621;27;2634;-79
2023/08/13 01:26:44;;;;;;;;;;;;;;;16.67;69.36;100194.25;5118418;27;2330;-78
2023/08/13 01:29:37;;;;;;;;;;;;;;;16.66;69.35;100198.88;5118484;27;2275;-79
2023/08/13 01:32:28;;;;;;;;;;;;;;;16.65;69.35;100194.53;5124179;27;3538;-77
2023/08/13 01:35:19;;;;;;;;;;;;;;;16.65;69.25;100191.81;5121147;27;1339;-81
2023/08/13 01:38:11;;;;;;;;;;;;;;;16.65;69.33;100190.97;5125582;27;1326;-76
2023/08/13 01:41:03;;;;;;;;;;;;;;;16.64;69.40;100186.63;5134051;27;1065;-78
2023/08/13 01:43:55;;;;;;;;;;;;;;;16.64;69.44;100187.44;5136566;27;1041;-78
2023/08/13 01:46:47;;;;;;;;;;;;;;;16.64;69.29;100189.34;5129715;27;1471;-80
2023/08/13 01:49:39;;;;;;;;;;;;;;;16.64;69.48;100184.72;5129421;27;1906;-78
2023/08/13 01:52:32;;;;;;;;;;;;;;;16.62;69.27;100181.47;5126315;27;1744;-78
2023/08/13 01:55:23;;;;;;;;;;;;;;;16.63;69.26;100176.84;5125775;27;1466;-77
2023/08/13 01:58:14;;;;;;;;;;;;;;;16.63;69.37;100176.84;5121560;27;1433;-78
2023/08/13 02:01:06;;;;;;;;;;;;;;;16.61;69.32;100179.81;5128632;27;1499;-77
2023/08/13 02:03:59;;;;;;;;;;;;;;;16.61;69.25;100177.09;5117478;27;2363;-79
2023/08/13 02:06:51;;;;;;;;;;;;;;;16.62;69.22;100172.47;5120840;27;2334;-78
2023/08/13 02:09:42;;;;;;;;;;;;;;;16.61;69.28;100168.94;5118364;27;2269;-76
2023/08/13 02:12:34;;;;;;;;;;;;;;;16.61;69.27;100159.97;5118443;27;2370;-77
2023/08/13 02:15:26;;;;;;;;;;;;;;;16.61;69.13;100155.34;5117679;27;2357;-78
2023/08/13 02:18:17;;;;;;;;;;;;;;;16.60;69.27;100147.50;5121796;27;2670;-79
2023/08/13 02:21:09;;;;;;;;;;;;;;;16.61;69.18;100140.94;5117473;27;2252;-79
2023/08/13 02:24:02;;;;;;;;;;;;;;;16.60;69.23;100140.16;5120729;27;2312;-77
2023/08/13 02:26:53;;;;;;;;;;;;;;;16.59;69.18;100146.69;5118811;27;2374;-77
2023/08/13 02:29:45;;;;;;;;;;;;;;;16.58;69.18;100143.13;5118495;27;2301;-78
2023/08/13 02:32:37;;;;;;;;;;;;;;;16.57;69.09;100144.22;5119741;27;2652;-78
2023/08/13 02:35:29;;;;;;;;;;;;;;;16.58;69.18;100147.75;5119887;27;2167;-79
2023/08/13 02:38:21;;;;;;;;;;;;;;;16.58;69.19;100150.47;5121543;27;2392;-77
2023/08/13 02:41:14;;;;;;;;;;;;;;;16.57;69.13;100157.00;5119957;27;2436;-77
2023/08/13 02:44:05;;;;;;;;;;;;;;;16.56;69.08;100156.19;5118782;27;2232;-77
2023/08/13 02:46:57;;;;;;;;;;;;;;;16.55;69.17;100154.53;5118946;27;2226;-78
2023/08/13 02:49:50;;;;;;;;;;;;;;;16.56;69.11;100160.81;5120746;27;2279;-79
2023/08/13 02:52:42;;;;;;;;;;;;;;;16.55;69.26;100170.84;5119635;27;2160;-79
2023/08/13 02:55:33;;;;;;;;;;;;;;;16.56;69.08;100158.09;5120720;27;2203;-77
2023/08/13 02:58:26;;;;;;;;;;;;;;;16.55;69.02;100159.16;5117250;27;2547;-76
2023/08/13 03:01:17;;;;;;;;;;;;;;;16.54;69.14;100160.25;5121120;27;2350;-79
2023/08/13 03:04:09;;;;;;;;;;;;;;;16.54;69.14;100152.09;5125555;27;2242;-78
2023/08/13 03:07:01;;;;;;;;;;;;;;;16.52;69.05;100152.34;5132736;27;2162;-78
2023/08/13 03:09:54;;;;;;;;;;;;;;;16.52;69.09;100152.34;5119017;27;1898;-78
2023/08/13 03:12:45;;;;;;;;;;;;;;;16.53;69.10;100145.00;5132381;27;1340;-78
2023/08/13 03:15:40;;;;;;;;;;;;;;;16.51;69.14;100139.84;5131689;27;1538;-78
2023/08/13 03:18:33;;;;;;;;;;;;;;;16.50;69.08;100132.78;5122596;27;1566;-77
2023/08/13 03:21:24;;;;;;;;;;;;;;;16.50;69.08;100140.94;5123754;27;1918;-79
2023/08/13 03:24:16;;;;;;;;;;;;;;;16.51;68.94;100136.31;5128975;27;1399;-77
2023/08/13 03:27:07;;;;;;;;;;;;;;;16.49;69.14;100142.00;5128230;28;1498;-77
2023/08/13 03:29:59;;;;;;;;;;;;;;;16.49;69.14;100143.91;5126594;28;1972;-77
2023/08/13 03:32:51;;;;;;;;;;;;;;;16.49;69.06;100143.91;5125687;27;1392;-77
2023/08/13 03:35:44;;;;;;;;;;;;;;;16.48;69.01;100147.72;5120595;27;2219;-77
2023/08/13 03:38:36;;;;;;;;;;;;;;;16.48;69.00;100153.19;5118666;27;2278;-78
2023/08/13 03:41:28;;;;;;;;;;;;;;;16.47;69.14;100146.94;5117430;27;2621;-77
2023/08/13 03:44:20;;;;;;;;;;;;;;;16.47;69.01;100146.94;5115576;27;2212;-77
2023/08/13 03:47:12;;;;;;;;;;;;;;;16.47;69.08;100137.94;5114978;27;2681;-79
2023/08/13 03:50:04;;;;;;;;;;;;;;;16.47;68.96;100129.78;5120206;27;2322;-77
2023/08/13 03:52:56;;;;;;;;;;;;;;;16.47;69.03;100132.50;5121272;27;2253;-76
2023/08/13 03:55:48;;;;;;;;;;;;;;;16.45;69.01;100127.34;5121711;27;2290;-78
2023/08/13 03:58:40;;;;;;;;;;;;;;;16.46;69.02;100128.16;5118693;27;2308;-78
2023/08/13 04:01:31;;;;;;;;;;;;;;;16.47;68.96;100127.06;5119781;27;2575;-77
2023/08/13 04:04:24;;;;;;;;;;;;;;;16.45;69.02;100124.63;5120727;27;2582;-78
2023/08/13 04:07:16;;;;;;;;;;;;;;;16.45;68.96;100119.19;5124091;27;2293;-77
2023/08/13 04:10:08;;;;;;;;;;;;;;;16.44;68.94;100119.44;5121912;27;2250;-78
2023/08/13 04:13:00;;;;;;;;;;;;;;;16.44;69.07;100116.72;5120440;27;2332;-77
2023/08/13 04:15:51;;;;;;;;;;;;;;;16.43;68.97;100124.06;5120862;27;2335;-78
2023/08/13 04:18:44;;;;;;;;;;;;;;;16.42;68.92;100127.88;5122102;27;2667;-76
2023/08/13 04:21:36;;;;;;;;;;;;;;;16.42;69.11;100130.59;5126652;27;1947;-77
2023/08/13 04:24:28;;;;;;;;;;;;;;;16.43;68.97;100136.84;5119100;27;2642;-77
2023/08/13 04:27:20;;;;;;;;;;;;;;;16.41;68.94;100133.56;5121052;27;2323;-78
2023/08/13 04:30:12;;;;;;;;;;;;;;;16.41;68.86;100153.41;5123299;27;2294;-78
2023/08/13 04:33:04;;;;;;;;;;;;;;;16.41;69.04;100147.97;5121472;27;2288;-77
2023/08/13 04:35:56;;;;;;;;;;;;;;;16.42;68.90;100143.38;5127812;27;2314;-77
2023/08/13 04:38:48;;;;;;;;;;;;;;;16.41;68.90;100142.53;5121135;27;2325;-76
2023/08/13 04:41:40;;;;;;;;;;;;;;;16.41;68.95;100147.97;5126228;27;2342;-78
2023/08/13 04:44:32;;;;;;;;;;;;;;;16.41;68.85;100153.41;5118732;27;2271;-78
2023/08/13 04:47:24;;;;;;;;;;;;;;;16.40;68.95;100159.94;5119015;27;2663;-77
2023/08/13 04:50:16;;;;;;;;;;;;;;;16.41;68.76;100158.84;5118730;27;2352;-76
2023/08/13 04:53:08;;;;;;;;;;;;;;;16.43;68.90;100153.97;5120470;27;2282;-78
2023/08/13 04:56:00;;;;;;;;;;;;;;;16.39;68.95;100152.88;5119751;27;2380;-77
2023/08/13 04:58:51;;;;;;;;;;;;;;;16.42;68.77;100159.69;5117405;27;2674;-77
2023/08/13 05:01:44;;;;;;;;;;;;;;;16.40;68.73;100156.41;5125365;27;2375;-76
2023/08/13 05:04:36;;;;;;;;;;;;;;;16.41;68.71;100158.03;5133414;27;1807;-75
2023/08/13 05:07:28;;;;;;;;;;;;;;;16.40;68.77;100154.50;5118952;27;2530;-76
2023/08/13 05:10:20;;;;;;;;;;;;;;;16.38;68.73;100143.06;5121599;27;2051;-77
2023/08/13 05:13:12;;;;;;;;;;;;;;;16.39;68.82;100138.47;5128491;27;1503;-76
2023/08/13 05:16:03;;;;;;;;;;;;;;;16.36;68.80;100147.97;5127010;27;2179;-77
2023/08/13 05:18:55;;;;;;;;;;;;;;;16.37;68.74;100146.88;5128754;27;2261;-77
2023/08/13 05:21:47;;;;;;;;;;;;;;;16.39;68.78;100149.34;5130710;27;1495;-78
2023/08/13 05:24:39;;;;;;;;;;;;;;;16.39;68.75;100149.34;5127614;27;1727;-76
2023/08/13 05:27:31;;;;;;;;;;;;;;;16.38;68.74;100150.41;5130186;27;1496;-79
2023/08/13 05:30:23;;;;;;;;;;;;;;;16.37;68.71;100146.06;5131278;27;1969;-78
2023/08/13 05:33:15;;;;;;;;;;;;;;;16.40;68.65;100150.97;5125070;27;2399;-79
2023/08/13 05:36:07;;;;;;;;;;;;;;;16.40;68.59;100142.81;5131118;27;1847;-79
2023/08/13 05:39:00;;;;;;;;;;;;;;;16.37;68.66;100146.88;5125576;27;1749;-77
2023/08/13 05:41:52;;;;;;;;;;;;;;;16.36;68.66;100142.53;5129862;27;1852;-77
2023/08/13 05:44:44;;;;;;;;;;;;;;;16.37;68.60;100135.19;5126602;27;1407;-79
2023/08/13 05:47:36;;;;;;;;;;;;;;;16.39;68.53;100141.19;5134141;27;1384;-77
2023/08/13 05:50:28;;;;;;;;;;;;;;;16.37;68.52;100146.06;5129397;27;1902;-77
2023/08/13 05:53:19;;;;;;;;;;;;;;;16.38;68.65;100150.41;5128063;27;1440;-77
2023/08/13 05:56:12;;;;;;;;;;;;;;;16.39;68.60;100157.50;5128200;27;1602;-78
2023/08/13 05:59:04;;;;;;;;;;;;;;;16.38;68.50;100156.66;5128874;27;2201;-76
2023/08/13 06:01:56;;;;;;;;;;;;;;;16.35;68.63;100155.31;5122540;27;2428;-77
2023/08/13 06:04:47;;;;;;;;;;;;;;;16.34;68.55;100159.09;5124556;27;2418;-78
2023/08/13 06:07:40;;;;;;;;;;;;;;;16.35;68.54;100158.03;5126770;27;2093;-78
2023/08/13 06:10:32;;;;;;;;;;;;;;;16.35;68.52;100155.31;5127376;27;1965;-77
2023/08/13 06:13:24;;;;;;;;;;;;;;;16.35;68.50;100160.75;5124508;27;3473;-76
2023/08/13 06:16:16;;;;;;;;;;;;;;;16.35;68.52;100152.59;5129897;27;2255;-78
2023/08/13 06:19:08;;;;;;;;;;;;;;;16.35;68.48;100154.47;5127797;27;1388;-78
2023/08/13 06:22:00;;;;;;;;;;;;;;;16.33;68.65;100143.09;5125672;27;1521;-77
2023/08/13 06:24:52;;;;;;;;;;;;;;;16.34;68.53;100155.56;5126093;27;2232;-78
2023/08/13 06:27:44;;;;;;;;;;;;;;;16.32;68.56;100146.88;5123236;27;1784;-75
2023/08/13 06:30:36;;;;;;;;;;;;;;;16.32;68.67;100144.16;5122574;27;2177;-77
2023/08/13 06:33:28;;;;;;;;;;;;;;;16.31;68.55;100148.78;5117708;27;2545;-79
2023/08/13 06:36:20;;;;;;;;;;;;;;;16.30;68.59;100141.72;5116924;27;2213;-76
2023/08/13 06:39:12;;;;;;;;;;;;;;;16.31;68.50;100145.25;5123766;27;2093;-80
2023/08/13 06:42:04;;;;;;;;;;;;;;;16.31;68.45;100143.34;5117111;27;2255;-78
2023/08/13 06:44:56;;;;;;;;;;;;;;;16.30;68.58;100149.06;5117524;27;2080;-77
2023/08/13 06:47:49;;;;;;;;;;;;;;;16.12;79.38;100150.34;5117590;27;2144;-79
2023/08/13 06:50:41;;;;;;;;;;;;;;;16.36;74.78;100145.25;5116813;27;2133;-77
2023/08/13 06:53:33;;;;;;;;;;;;;;;16.45;71.47;100143.66;5116012;27;2177;-78
2023/08/13 06:56:25;;;;;;;;;;;;;;;16.37;70.84;100135.19;5115667;27;2284;-78
2023/08/13 06:59:17;;;;;;;;;;;;;;;16.33;70.64;100141.19;5121593;27;2581;-78
2023/08/13 07:02:08;;;;;;;;;;;;;;;16.31;70.61;100140.63;5121231;27;2214;-77
2023/08/13 07:05:03;;;;;;;;;;;;;;;16.30;70.52;100144.44;5123659;27;2119;-77
2023/08/13 07:07:54;;;;;;;;;;;;;;;16.31;70.36;100140.63;5118706;27;2288;-79
2023/08/13 07:10:46;;;;;;;;;;;;;;;16.31;70.16;100142.53;5115537;27;3719;-77
2023/08/13 07:13:38;;;;;;;;;;;;;;;16.29;70.20;100140.06;5120514;27;2906;-79
2023/08/13 07:16:30;;;;;;;;;;;;;;;16.31;75.37;100145.25;5117645;27;2569;-76
2023/08/13 07:19:22;;;;;;;;;;;;;;;16.33;72.88;100137.66;5119880;27;2342;-77
2023/08/13 07:22:14;;;;;;;;;;;;;;;16.47;70.42;100136.06;5121689;27;2798;-78
2023/08/13 07:25:06;;;;;;;;;;;;;;;16.35;70.50;100149.03;5118029;27;2307;-79
2023/08/13 07:27:57;;;;;;;;;;;;;;;16.31;70.58;100150.69;5121843;27;2653;-78
2023/08/13 07:30:49;;;;;;;;;;;;;;;16.30;70.55;100146.34;5119420;27;2429;-79
2023/08/13 07:33:41;;;;;;;;;;;;;;;16.28;70.39;100146.59;5119244;27;2471;-77
2023/08/13 07:36:33;;;;;;;;;;;;;;;16.28;70.26;100157.47;5122608;27;2173;-76
2023/08/13 07:39:25;;;;;;;;;;;;;;;16.28;70.06;100153.94;5120310;27;2185;-78
2023/08/13 07:42:17;;;;;;;;;;;;;;;16.28;70.06;100157.47;5120533;27;2236;-78
2023/08/13 07:45:09;;;;;;;;;;;;;;;16.28;69.96;100159.38;5121385;27;2194;-77
2023/08/13 07:48:01;;;;;;;;;;;;;;;16.28;69.88;100157.47;5120966;27;2188;-79
2023/08/13 07:50:53;;;;;;;;;;;;;;;16.29;69.76;100155.56;5121552;27;2209;-78
2023/08/13 07:53:45;;;;;;;;;;;;;;;16.28;69.77;100157.47;5120114;27;2251;-78
2023/08/13 07:56:37;;;;;;;;;;;;;;;16.29;69.68;100156.38;5121842;27;2490;-78
2023/08/13 07:59:29;;;;;;;;;;;;;;;16.28;69.81;100160.16;5124005;27;2659;-79
2023/08/13 08:02:21;;;;;;;;;;;;;;;16.29;69.52;100161.78;5121066;27;2132;-77
2023/08/13 08:05:12;;;;;;;;;;;;;;;16.29;69.51;100172.66;5119832;27;4535;-78
2023/08/13 08:08:04;;;;;;;;;;;;;;;16.30;69.40;100168.06;5120207;27;2704;-78
2023/08/13 08:10:56;;;;;;;;;;;;;;;16.31;69.37;100164.25;5121296;27;2662;-79
2023/08/13 08:13:48;;;;;;;;;;;;;;;16.31;69.35;100169.69;5120933;27;2296;-77
2023/08/13 08:16:40;;;;;;;;;;;;;;;16.30;69.31;100166.16;5121483;27;2512;-78
2023/08/13 08:19:32;;;;;;;;;;;;;;;16.31;69.22;100162.34;5117939;27;2376;-78
2023/08/13 08:22:24;;;;;;;;;;;;;;;16.32;69.12;100164.00;5117136;27;2361;-78
2023/08/13 08:25:16;;;;;;;;;;;;;;;16.31;69.15;100162.34;5125049;27;2326;-78
2023/08/13 08:28:08;;;;;;;;;;;;;;;16.32;69.04;100155.84;5121051;27;2263;-77
2023/08/13 08:31:00;;;;;;;;;;;;;;;16.33;69.07;100165.63;5119878;27;2676;-77
2023/08/13 08:33:52;;;;;;;;;;;;;;;16.33;69.04;100162.91;5124249;27;2232;-78
2023/08/13 08:36:44;;;;;;;;;;;;;;;16.34;68.90;100169.97;5118919;27;2212;-77
2023/08/13 08:39:36;;;;;;;;;;;;;;;16.34;68.91;100171.88;5119382;27;2158;-77
2023/08/13 08:42:27;;;;;;;;;;;;;;;16.34;68.92;100174.59;5121580;27;2205;-77
2023/08/13 08:45:19;;;;;;;;;;;;;;;16.35;68.92;100168.91;5118998;27;2157;-78
2023/08/13 08:48:11;;;;;;;;;;;;;;;16.34;68.85;100164.53;5123945;27;2287;-77
2023/08/13 08:51:03;;;;;;;;;;;;;;;16.34;68.79;100171.88;5119520;27;2168;-79
2023/08/13 08:53:54;;;;;;;;;;;;;;;16.34;68.90;100169.97;5118587;27;2101;-79
2023/08/13 08:56:46;;;;;;;;;;;;;;;16.34;68.78;100175.41;5119562;27;2173;-77
2023/08/13 08:59:37;;;;;;;;;;;;;;;16.34;68.83;100167.25;5120632;27;2236;-78
2023/08/13 09:02:29;;;;;;;;;;;;;;;16.34;68.89;100167.25;5118416;27;2166;-77
2023/08/13 09:05:21;;;;;;;;;;;;;;;16.35;68.72;100173.50;5118478;27;2177;-77
2023/08/13 09:08:13;;;;;;;;;;;;;;;16.35;68.77;100170.78;5120040;27;2343;-76
2023/08/13 09:11:04;;;;;;;;;;;;;;;16.34;68.81;100175.41;5119004;27;2189;-79
2023/08/13 09:13:56;;;;;;;;;;;;;;;16.36;68.82;100177.88;5121094;27;2150;-79
2023/08/13 09:16:47;;;;;;;;;;;;;;;16.35;68.84;100165.34;5127460;27;2127;-77
2023/08/13 09:19:40;;;;;;;;;;;;;;;16.35;68.87;100165.34;5124735;27;1700;-78
2023/08/13 09:22:32;;;;;;;;;;;;;;;16.34;68.95;100172.69;5132545;27;1783;-77
2023/08/13 09:25:24;;;;;;;;;;;;;;;16.34;68.99;100180.84;5130093;27;994;-78
2023/08/13 09:28:16;;;;;;;;;;;;;;;16.35;68.87;100177.06;5134639;27;1037;-78
2023/08/13 09:31:08;;;;;;;;;;;;;;;16.35;68.98;100184.38;5127307;27;1901;-79
2023/08/13 09:33:59;;;;;;;;;;;;;;;16.35;69.00;100181.66;5126274;27;1780;-79
2023/08/13 09:36:52;;;;;;;;;;;;;;;16.34;69.02;100180.84;5134081;27;1029;-76
2023/08/13 09:39:45;;;;;;;;;;;;;;;16.34;69.09;100180.84;5127812;27;1519;-78
2023/08/13 09:42:37;;;;;;;;;;;;;;;16.34;69.17;100182.75;5132122;27;1567;-78
2023/08/13 09:45:29;;;;;;;;;;;;;;;16.34;69.17;100185.47;5134035;27;969;-78
2023/08/13 09:48:21;;;;;;;;;;;;;;;16.34;69.14;100183.56;5130550;27;1650;-77
2023/08/13 09:51:15;;;;;;;;;;;;;;;16.34;69.07;100185.47;5120410;27;2200;-76
2023/08/13 09:54:07;;;;;;;;;;;;;;;16.35;69.11;100187.09;5118327;27;2204;-76
2023/08/13 09:56:59;;;;;;;;;;;;;;;16.33;69.40;100190.09;5118914;27;2681;-77
2023/08/13 09:59:53;;;;;;;;;;;;;;;16.34;69.16;100190.91;5119141;27;2551;-77
2023/08/13 10:02:45;;;;;;;;;;;;;;;16.35;69.17;100192.53;5116517;27;2164;-77
2023/08/13 10:05:37;;;;;;;;;;;;;;;16.34;69.28;100189.00;5121943;27;2227;-78
2023/08/13 10:08:29;;;;;;;;;;;;;;;16.34;69.05;100189.00;5118375;27;2315;-77
2023/08/13 10:11:22;;;;;;;;;;;;;;;16.35;69.26;100193.38;5118598;27;2207;-77
2023/08/13 10:14:14;;;;;;;;;;;;;;;16.34;69.14;100196.34;5118720;27;2280;-76
2023/08/13 10:17:06;;;;;;;;;;;;;;;16.33;69.14;100195.53;5120863;27;2215;-77
2023/08/13 10:19:58;;;;;;;;;;;;;;;16.34;69.21;100205.31;5117434;27;2332;-78
2023/08/13 10:22:50;;;;;;;;;;;;;;;16.34;69.13;100205.31;5117685;27;2137;-76
2023/08/13 10:25:44;;;;;;;;;;;;;;;16.33;69.21;100217.25;5117677;27;2357;-78
2023/08/13 10:28:36;;;;;;;;;;;;;;;16.33;69.08;100211.81;5118909;27;2137;-79
2023/08/13 10:31:29;;;;;;;;;;;;;;;16.34;69.22;100216.16;5118077;27;2215;-78
2023/08/13 10:34:20;;;;;;;;;;;;;;;16.35;69.12;100233.28;5124074;27;2161;-78
2023/08/13 10:37:12;;;;;;;;;;;;;;;16.34;69.08;100224.31;5117246;27;2235;-78
2023/08/13 10:40:06;;;;;;;;;;;;;;;16.34;69.16;100227.03;5115869;27;2632;-77
2023/08/13 10:42:57;;;;;;;;;;;;;;;16.34;69.09;100223.50;5119945;27;2209;-77
2023/08/13 10:45:49;;;;;;;;;;;;;;;16.34;69.10;100229.75;5118285;27;2196;-77
2023/08/13 10:48:41;;;;;;;;;;;;;;;16.33;69.13;100221.88;5118523;27;2152;-78
2023/08/13 10:51:33;;;;;;;;;;;;;;;16.34;69.07;100231.66;5117194;27;2205;-77
2023/08/13 10:54:25;;;;;;;;;;;;;;;15.92;69.04;100161.13;5116766;27;2352;-77
2023/08/13 10:57:16;;;;;;;;;;;;;;;16.35;69.11;100233.28;5116052;27;2330;-79
2023/08/13 11:00:08;;;;;;;;;;;;;;;16.35;69.17;100236.84;5119896;27;2139;-78
2023/08/13 11:03:00;;;;;;;;;;;;;;;16.34;69.15;100234.38;5113800;27;2247;-79
2023/08/13 11:05:52;;;;;;;;;;;;;;;16.35;69.16;100244.16;5116296;27;2134;-79
2023/08/13 11:08:46;;;;;;;;;;;;;;;16.34;69.10;100243.34;5115945;27;2500;-76
2023/08/13 11:11:38;;;;;;;;;;;;;;;16.35;69.10;100242.28;5117395;27;2555;-77
2023/08/13 11:14:30;;;;;;;;;;;;;;;16.36;69.18;100243.09;5118809;27;2304;-77
2023/08/13 11:17:22;;;;;;;;;;;;;;;16.35;69.05;100250.44;5123511;27;2166;-77
2023/08/13 11:20:14;;;;;;;;;;;;;;;16.35;69.19;100242.28;5129834;28;1495;-78
2023/08/13 11:23:06;;;;;;;;;;;;;;;16.37;69.13;100243.91;5118117;28;2118;-78
2023/08/13 11:25:58;;;;;;;;;;;;;;;16.38;69.15;100248.25;5117220;27;2557;-78
2023/08/13 11:28:50;;;;;;;;;;;;;;;16.36;69.17;100245.81;5118226;27;2133;-78
2023/08/13 11:31:41;;;;;;;;;;;;;;;16.37;69.25;100239.28;5115149;27;2273;-79
2023/08/13 11:34:33;;;;;;;;;;;;;;;16.37;69.19;100250.16;5116967;27;2490;-78
2023/08/13 11:37:25;;;;;;;;;;;;;;;16.37;69.20;100250.16;5115883;27;2234;-79
2023/08/13 11:40:17;;;;;;;;;;;;;;;16.38;69.20;100243.63;5116983;28;2109;-78
2023/08/13 11:43:09;;;;;;;;;;;;;;;16.37;69.17;100249.34;5120317;27;2145;-79
2023/08/13 11:46:01;;;;;;;;;;;;;;;16.38;69.16;100253.69;5123808;27;2565;-80
2023/08/13 11:48:52;;;;;;;;;;;;;;;16.38;69.22;100251.78;5116270;27;2261;-78
2023/08/13 11:51:44;;;;;;;;;;;;;;;16.37;69.16;100250.16;5121768;28;2114;-77
2023/08/13 11:54:36;;;;;;;;;;;;;;;16.39;69.12;100258.06;5122245;27;1320;-76
2023/08/13 11:57:28;;;;;;;;;;;;;;;16.38;69.21;100251.78;5129306;27;1499;-78
2023/08/13 12:00:20;;;;;;;;;;;;;;;16.39;69.27;100253.44;5133325;27;1411;-78
2023/08/13 12:03:12;;;;;;;;;;;;;;;16.39;69.19;100242.56;5119263;27;2141;-80
2023/08/13 12:06:04;;;;;;;;;;;;;;;16.39;69.17;100241.75;5118056;27;2268;-79
2023/08/13 12:08:56;;;;;;;;;;;;;;;16.41;69.22;100242.28;5120557;27;2288;-79
2023/08/13 12:11:48;;;;;;;;;;;;;;;16.41;69.20;100250.44;5121505;27;2216;-79
2023/08/13 12:14:39;;;;;;;;;;;;;;;16.40;69.18;100249.63;5125637;27;1992;-79
2023/08/13 12:17:31;;;;;;;;;;;;;;;16.41;69.14;100253.97;5135301;27;3875;-77
2023/08/13 12:20:23;;;;;;;;;;;;;;;16.41;69.13;100258.59;5133449;27;1369;-78
2023/08/13 12:23:15;;;;;;;;;;;;;;;16.42;69.09;100258.34;5128873;27;3508;-78
2023/08/13 12:26:07;;;;;;;;;;;;;;;16.43;69.14;100248.28;5130633;27;1566;-78
2023/08/13 12:28:59;;;;;;;;;;;;;;;16.43;69.11;100253.72;5130306;27;1646;-78
2023/08/13 12:31:51;;;;;;;;;;;;;;;16.43;69.17;100251.81;5123429;27;2120;-77
2023/08/13 12:34:43;;;;;;;;;;;;;;;16.44;69.28;100253.47;5130311;27;3566;-79
2023/08/13 12:37:35;;;;;;;;;;;;;;;16.45;69.25;100248.84;5130720;27;2089;-79
2023/08/13 12:40:27;;;;;;;;;;;;;;;16.44;69.17;100252.63;5134053;27;1313;-79
2023/08/13 12:43:19;;;;;;;;;;;;;;;16.45;69.14;100257.81;5128833;27;1946;-77
2023/08/13 12:46:11;;;;;;;;;;;;;;;16.46;69.12;100262.16;5122740;27;1717;-79
2023/08/13 12:49:03;;;;;;;;;;;;;;;16.46;69.21;100261.34;5128407;27;2209;-77
2023/08/13 12:51:55;;;;;;;;;;;;;;;16.46;69.19;100255.91;5121770;27;2411;-78
2023/08/13 12:54:47;;;;;;;;;;;;;;;16.47;69.10;100265.69;5120871;27;2428;-77
2023/08/13 12:57:39;;;;;;;;;;;;;;;16.47;69.19;100258.38;5126647;27;2654;-81
2023/08/13 13:00:31;;;;;;;;;;;;;;;16.49;69.21;100268.97;5120316;27;2281;-76
2023/08/13 13:03:23;;;;;;;;;;;;;;;16.72;69.17;100268.50;5119257;27;4946;-77
2023/08/13 13:06:14;;;;;;;;;;;;;;;16.59;69.19;100266.28;5120689;27;2237;-79
2023/08/13 13:09:06;;;;;;;;;;;;;;;16.55;69.62;100265.97;5117678;27;3306;-77
2023/08/13 13:11:58;;;;;;;;;;;;;;;16.55;69.95;100268.69;5118823;27;2339;-79
2023/08/13 13:14:50;;;;;;;;;;;;;;;16.55;69.95;100265.16;5121192;27;2312;-78
2023/08/13 13:17:41;;;;;;;;;;;;;;;16.56;69.91;100266.81;5119747;27;2545;-79
2023/08/13 13:20:33;;;;;;;;;;;;;;;16.57;70.00;100263.00;5119556;27;2339;-78
2023/08/13 13:23:25;;;;;;;;;;;;;;;16.58;70.03;100264.63;5119031;27;2329;-79
2023/08/13 13:26:17;;;;;;;;;;;;;;;16.58;69.94;100267.34;5119495;27;2355;-78
2023/08/13 13:29:09;;;;;;;;;;;;;;;16.58;69.83;100270.88;5118856;27;2696;-79
2023/08/13 13:32:01;;;;;;;;;;;;;;;16.60;69.88;100261.66;5117199;27;2237;-78
2023/08/13 13:34:53;;;;;;;;;;;;;;;16.62;69.76;100270.34;5118258;27;2232;-78
2023/08/13 13:37:45;;;;;;;;;;;;;;;16.62;69.81;100257.59;5123008;27;2631;-78
2023/08/13 13:40:37;;;;;;;;;;;;;;;16.63;69.77;100250.25;5117900;27;2306;-80
2023/08/13 13:43:29;;;;;;;;;;;;;;;16.63;69.76;100253.78;5121008;27;2429;-79
2023/08/13 13:46:21;;;;;;;;;;;;;;;16.64;69.82;100260.03;5121168;27;2380;-80
2023/08/13 13:49:13;;;;;;;;;;;;;;;16.66;69.72;100257.88;5121309;27;2259;-77
2023/08/13 13:52:06;;;;;;;;;;;;;;;16.65;69.65;100251.63;5118917;27;2487;-79
2023/08/13 13:54:58;;;;;;;;;;;;;;;16.66;69.72;100257.88;5120011;27;2410;-80
2023/08/13 13:57:50;;;;;;;;;;;;;;;16.67;69.73;100271.19;5122869;27;2586;-78
2023/08/13 14:00:43;;;;;;;;;;;;;;;16.67;69.70;100263.03;5121793;27;2484;-79
2023/08/13 14:03:34;;;;;;;;;;;;;;;16.68;69.69;100264.69;5117275;27;2284;-80
2023/08/13 14:06:26;;;;;;;;;;;;;;;16.68;69.76;100261.97;5121721;27;2444;-79
2023/08/13 14:09:18;;;;;;;;;;;;;;;16.69;69.76;100254.63;5120013;27;2318;-79
2023/08/13 14:12:10;;;;;;;;;;;;;;;16.70;69.77;100265.22;5117711;27;2648;-79
2023/08/13 14:15:01;;;;;;;;;;;;;;;16.71;69.69;100247.03;5121516;27;2160;-80
2023/08/13 14:17:53;;;;;;;;;;;;;;;16.71;69.68;100258.72;5117233;27;2247;-79
2023/08/13 14:20:45;;;;;;;;;;;;;;;16.72;69.68;100260.34;5118630;27;2169;-78
2023/08/13 14:23:37;;;;;;;;;;;;;;;16.72;69.82;100251.38;5119565;27;2114;-78
2023/08/13 14:26:29;;;;;;;;;;;;;;;16.74;69.91;100257.38;5122374;27;2238;-79
2023/08/13 14:29:21;;;;;;;;;;;;;;;16.74;69.75;100260.09;5115897;27;2237;-79
2023/08/13 14:32:13;;;;;;;;;;;;;;;16.77;69.75;100265.03;5116465;27;2178;-76
2023/08/13 14:35:05;;;;;;;;;;;;;;;16.76;69.77;100258.75;5120770;27;1371;-76
2023/08/13 14:37:57;;;;;;;;;;;;;;;16.77;69.79;100259.59;5128466;27;1360;-78
2023/08/13 14:40:49;;;;;;;;;;;;;;;16.79;69.83;100265.56;5125126;27;1415;-77
2023/08/13 14:43:41;;;;;;;;;;;;;;;16.80;69.80;100259.03;5127334;27;1442;-76
2023/08/13 14:46:33;;;;;;;;;;;;;;;16.80;70.02;100265.28;5128689;27;1395;-76
2023/08/13 14:49:25;;;;;;;;;;;;;;;16.81;69.83;100260.66;5124982;27;1379;-76
2023/08/13 14:52:17;;;;;;;;;;;;;;;16.81;69.85;100263.38;5124312;27;1605;-75
2023/08/13 14:55:09;;;;;;;;;;;;;;;16.83;69.89;100258.50;5129953;27;1368;-77